createdAt,value
2023-01-26T00:01:23.001Z,0.40
2023-01-26T00:03:52.750Z,0.40
2023-01-26T00:06:22.225Z,0.40
2023-01-26T00:08:51.791Z,0.40
2023-01-26T00:11:24.363Z,0.40
2023-01-26T00:13:52.574Z,0.30
2023-01-26T00:16:21.366Z,0.30
2023-01-26T00:18:49.252Z,0.30
2023-01-26T00:21:19.350Z,0.30
2023-01-26T00:23:48.151Z,0.30
2023-01-26T00:26:18.210Z,0.30
2023-01-26T00:28:47.347Z,0.30
2023-01-26T00:31:17.848Z,0.30
2023-01-26T00:33:46.077Z,0.30
2023-01-26T00:36:14.541Z,0.30
2023-01-26T00:38:43.001Z,0.40
2023-01-26T00:41:31.092Z,0.30
2023-01-26T00:44:00.605Z,0.30
2023-01-26T00:46:31.289Z,0.20
2023-01-26T00:49:00.879Z,0.30
2023-01-26T00:51:28.907Z,0.20
2023-01-26T00:53:56.715Z,0.20
2023-01-26T00:56:27.955Z,0.20
2023-01-26T00:58:55.824Z,0.20
2023-01-26T01:01:25.037Z,0.20
2023-01-26T01:03:53.072Z,0.20
2023-01-26T01:06:22.539Z,0.30
2023-01-26T01:08:50.352Z,0.30
2023-01-26T01:11:18.089Z,0.30
2023-01-26T01:13:45.879Z,0.20
2023-01-26T01:16:16.499Z,0.20
2023-01-26T01:18:45.850Z,0.30
2023-01-26T01:21:16.010Z,0.30
2023-01-26T01:23:44.902Z,0.20
2023-01-26T01:26:13.668Z,0.20
2023-01-26T01:28:42.770Z,0.20
2023-01-26T01:31:12.832Z,0.20
2023-01-26T01:33:41.199Z,0.20
2023-01-26T01:36:12.757Z,0.30
2023-01-26T01:38:40.588Z,0.40
2023-01-26T01:41:08.403Z,0.40
2023-01-26T01:43:36.764Z,0.40
2023-01-26T01:46:26.058Z,0.30
2023-01-26T01:48:58.172Z,0.30
2023-01-26T01:51:34.325Z,0.30
2023-01-26T01:54:05.922Z,0.30
2023-01-26T01:56:36.641Z,0.30
2023-01-26T01:59:08.312Z,0.30
2023-01-26T02:01:36.069Z,0.30
2023-01-26T02:04:07.185Z,0.20
2023-01-26T02:06:39.900Z,0.30
2023-01-26T02:09:08.249Z,0.30
2023-01-26T02:11:40.173Z,0.30
2023-01-26T02:14:10.683Z,0.30
2023-01-26T02:16:39.947Z,0.40
2023-01-26T02:19:13.096Z,0.30
2023-01-26T02:21:45.434Z,0.30
2023-01-26T02:24:19.677Z,0.30
2023-01-26T02:26:49.236Z,0.30
2023-01-26T02:29:17.001Z,0.30
2023-01-26T02:31:45.446Z,0.20
2023-01-26T02:34:13.218Z,0.20
2023-01-26T02:36:41.105Z,0.30
2023-01-26T02:39:24.850Z,0.30
2023-01-26T02:42:12.528Z,0.20
2023-01-26T02:44:42.637Z,0.30
2023-01-26T02:47:15.059Z,0.30
2023-01-26T02:49:47.575Z,0.20
2023-01-26T02:52:15.758Z,0.20
2023-01-26T02:55:01.141Z,0.20
2023-01-26T02:57:30.383Z,0.20
2023-01-26T02:59:58.097Z,0.20
2023-01-26T03:02:25.823Z,0.20
2023-01-26T03:04:53.509Z,0.20
2023-01-26T03:07:21.297Z,0.20
2023-01-26T03:09:49.022Z,0.20
2023-01-26T03:12:16.722Z,0.30
2023-01-26T03:14:45.789Z,0.30
2023-01-26T03:17:13.457Z,0.30
2023-01-26T03:19:58.662Z,0.30
2023-01-26T03:22:44.307Z,0.40
2023-01-26T03:25:29.945Z,0.40
2023-01-26T03:27:57.669Z,0.40
2023-01-26T03:30:26.758Z,0.40
2023-01-26T03:32:54.496Z,0.30
2023-01-26T03:35:22.736Z,0.30
2023-01-26T03:37:54.671Z,0.20
2023-01-26T03:40:40.366Z,0.20
2023-01-26T03:43:26.346Z,0.20
2023-01-26T03:46:12.952Z,0.20
2023-01-26T03:48:58.509Z,0.20
2023-01-26T03:51:43.883Z,0.20
2023-01-26T03:54:29.520Z,0.20
2023-01-26T03:56:57.248Z,0.30
2023-01-26T03:59:38.173Z,0.20
2023-01-26T04:02:25.415Z,0.20
2023-01-26T04:05:11.742Z,0.20
2023-01-26T04:07:58.194Z,0.20
2023-01-26T04:10:26.828Z,0.20
2023-01-26T04:13:12.387Z,0.20
2023-01-26T04:15:57.762Z,0.30
2023-01-26T04:18:44.724Z,0.20
2023-01-26T04:21:27.762Z,0.30
2023-01-26T04:23:57.346Z,0.30
2023-01-26T04:26:25.767Z,0.30
2023-01-26T04:28:53.553Z,0.30
2023-01-26T04:31:21.251Z,0.40
2023-01-26T04:33:50.325Z,0.30
2023-01-26T04:36:18.033Z,0.30
2023-01-26T04:38:45.766Z,0.30
2023-01-26T04:41:13.462Z,0.40
2023-01-26T04:43:41.180Z,0.40
2023-01-26T04:46:09.716Z,0.40
2023-01-26T04:48:37.796Z,0.40
2023-01-26T04:51:08.803Z,0.50
2023-01-26T04:53:36.635Z,0.50
2023-01-26T04:56:04.659Z,0.50
2023-01-26T04:58:33.669Z,0.50
2023-01-26T05:01:01.397Z,0.60
2023-01-26T05:03:29.189Z,0.70
2023-01-26T05:05:56.898Z,0.70
2023-01-26T05:08:25.974Z,0.70
2023-01-26T05:10:53.684Z,0.60
2023-01-26T05:13:21.415Z,0.50
2023-01-26T05:15:49.177Z,0.40
2023-01-26T05:18:16.882Z,0.30
2023-01-26T05:20:44.625Z,0.20
2023-01-26T05:23:12.372Z,0.20
2023-01-26T05:25:41.555Z,0.30
2023-01-26T05:28:09.277Z,0.30
2023-01-26T05:30:37.117Z,0.20
2023-01-26T05:33:05.946Z,0.20
2023-01-26T05:35:33.811Z,0.30
2023-01-26T05:38:02.021Z,0.30
2023-01-26T05:40:29.834Z,0.20
2023-01-26T05:42:58.944Z,0.30
2023-01-26T05:45:26.663Z,0.30
2023-01-26T05:47:54.446Z,0.30
2023-01-26T05:50:22.198Z,0.20
2023-01-26T05:52:49.965Z,0.20
2023-01-26T05:55:17.855Z,0.20
2023-01-26T05:57:45.612Z,0.20
2023-01-26T06:00:15.794Z,0.30
2023-01-26T06:02:43.578Z,0.20
2023-01-26T06:05:11.467Z,0.20
2023-01-26T06:07:39.320Z,0.20
2023-01-26T06:10:07.895Z,0.20
2023-01-26T06:12:38.537Z,0.20
2023-01-26T06:15:08.021Z,0.20
2023-01-26T06:17:37.122Z,0.30
2023-01-26T06:20:05.451Z,0.30
2023-01-26T06:22:33.154Z,0.30
2023-01-26T06:25:00.913Z,0.30
2023-01-26T06:27:28.672Z,0.20
2023-01-26T06:29:56.686Z,0.30
2023-01-26T06:32:25.371Z,0.20
2023-01-26T06:34:54.828Z,0.20
2023-01-26T06:37:22.618Z,0.30
2023-01-26T06:39:50.368Z,0.30
2023-01-26T06:42:18.076Z,0.40
2023-01-26T06:44:45.806Z,0.30
2023-01-26T06:47:14.892Z,0.30
2023-01-26T06:49:42.646Z,0.30
2023-01-26T06:52:27.103Z,0.30
2023-01-26T06:54:55.226Z,0.30
2023-01-26T06:57:22.918Z,0.30
2023-01-26T06:59:50.703Z,0.20
2023-01-26T07:02:20.618Z,0.20
2023-01-26T07:04:48.978Z,0.20
2023-01-26T07:07:16.941Z,0.30
2023-01-26T07:09:46.031Z,0.30
2023-01-26T07:12:13.893Z,0.30
2023-01-26T07:14:41.693Z,0.30
2023-01-26T07:17:09.457Z,0.30
2023-01-26T07:19:37.362Z,0.30
2023-01-26T07:22:05.354Z,0.30
2023-01-26T07:24:33.102Z,0.30
2023-01-26T07:27:02.155Z,0.30
2023-01-26T07:29:30.294Z,0.40
2023-01-26T07:31:58.087Z,0.30
2023-01-26T07:34:25.855Z,0.30
2023-01-26T07:36:53.947Z,0.30
2023-01-26T07:39:21.691Z,0.30
2023-01-26T07:41:50.432Z,0.30
2023-01-26T07:44:19.492Z,0.30
2023-01-26T07:46:47.243Z,0.30
2023-01-26T07:49:14.980Z,0.30
2023-01-26T07:51:42.700Z,0.30
2023-01-26T07:54:13.023Z,0.40
2023-01-26T07:56:40.771Z,0.40
2023-01-26T07:59:08.483Z,0.40
2023-01-26T08:01:37.537Z,0.40
2023-01-26T08:04:05.563Z,0.40
2023-01-26T08:06:33.273Z,0.40
2023-01-26T08:09:01.088Z,0.40
2023-01-26T08:11:28.795Z,0.40
2023-01-26T08:13:57.050Z,0.40
2023-01-26T08:16:24.957Z,0.50
2023-01-26T08:18:54.162Z,0.60
2023-01-26T08:21:21.909Z,0.50
2023-01-26T08:23:51.137Z,0.60
2023-01-26T08:26:20.647Z,0.60
2023-01-26T08:28:49.390Z,0.50
2023-01-26T08:31:20.463Z,0.50
2023-01-26T08:33:50.699Z,0.50
2023-01-26T08:36:22.638Z,0.40
2023-01-26T08:38:51.102Z,0.30
2023-01-26T08:41:19.157Z,0.20
2023-01-26T08:43:47.116Z,0.10
2023-01-26T08:46:14.913Z,0.10
2023-01-26T08:48:42.699Z,0.20
2023-01-26T08:51:10.432Z,0.20
2023-01-26T08:53:39.611Z,0.20
2023-01-26T08:56:09.813Z,0.20
2023-01-26T08:58:37.935Z,0.30
2023-01-26T09:01:06.386Z,0.30
2023-01-26T09:03:34.725Z,0.40
2023-01-26T09:06:04.419Z,0.60
2023-01-26T09:08:32.226Z,0.70
2023-01-26T09:11:01.809Z,0.70
2023-01-26T09:13:29.537Z,0.70
2023-01-26T09:15:57.307Z,0.70
2023-01-26T09:18:25.037Z,0.80
2023-01-26T09:20:53.613Z,0.80
2023-01-26T09:23:21.321Z,0.80
2023-01-26T09:25:54.056Z,0.90
2023-01-26T09:28:23.293Z,0.80
2023-01-26T09:30:51.112Z,0.60
2023-01-26T09:33:21.498Z,0.60
2023-01-26T09:35:50.004Z,0.50
2023-01-26T09:38:17.784Z,0.40
2023-01-26T09:40:54.647Z,0.30
2023-01-26T09:43:34.071Z,0.40
2023-01-26T09:46:08.784Z,0.40
2023-01-26T09:48:43.238Z,0.30
2023-01-26T09:51:15.480Z,0.30
2023-01-26T09:53:51.570Z,0.20
2023-01-26T09:56:21.519Z,0.10
2023-01-26T09:58:58.887Z,0.00
2023-01-26T10:01:34.752Z,-0.10
2023-01-26T10:04:06.759Z,-0.10
2023-01-26T10:06:35.596Z,0.00
2023-01-26T10:09:08.937Z,0.00
2023-01-26T10:11:42.033Z,0.00
2023-01-26T10:14:16.127Z,-0.10
2023-01-26T10:16:46.496Z,-0.10
2023-01-26T10:19:22.296Z,-0.10
2023-01-26T10:21:53.888Z,-0.10
2023-01-26T10:24:24.030Z,-0.20
2023-01-26T10:26:54.448Z,-0.20
2023-01-26T10:29:23.912Z,-0.20
2023-01-26T10:31:51.717Z,-0.20
2023-01-26T10:34:25.877Z,-0.20
2023-01-26T10:37:02.530Z,-0.10
2023-01-26T10:39:30.323Z,0.10
2023-01-26T10:42:00.326Z,0.00
2023-01-26T10:44:34.092Z,0.10
2023-01-26T10:47:16.198Z,0.10
2023-01-26T10:49:44.607Z,0.10
2023-01-26T10:52:18.386Z,-0.10
2023-01-26T10:54:46.619Z,-0.10
2023-01-26T10:57:27.908Z,-0.20
2023-01-26T10:59:59.984Z,-0.20
2023-01-26T11:02:29.398Z,-0.30
2023-01-26T11:05:21.350Z,-0.20
2023-01-26T11:07:51.074Z,-0.20
2023-01-26T11:10:25.613Z,-0.20
2023-01-26T11:13:08.365Z,-0.20
2023-01-26T11:15:40.263Z,-0.10
2023-01-26T11:18:16.803Z,0.00
2023-01-26T11:20:50.167Z,0.10
2023-01-26T11:23:30.787Z,0.10
2023-01-26T11:26:37.199Z,0.20
2023-01-26T11:29:23.810Z,0.40
2023-01-26T11:32:00.540Z,0.50
2023-01-26T11:34:36.683Z,0.50
2023-01-26T11:37:32.962Z,0.40
2023-01-26T11:40:05.572Z,0.40
2023-01-26T11:42:42.276Z,0.30
2023-01-26T11:45:23.192Z,0.30
2023-01-26T11:48:07.463Z,0.30
2023-01-26T11:50:39.917Z,0.50
2023-01-26T11:53:25.479Z,0.60
2023-01-26T11:56:03.271Z,0.70
2023-01-26T11:58:36.398Z,0.60
2023-01-26T12:01:10.998Z,0.60
2023-01-26T12:03:47.496Z,0.60
2023-01-26T12:06:19.451Z,0.50
2023-01-26T12:08:52.847Z,0.50
2023-01-26T12:11:26.529Z,0.30
2023-01-26T12:14:02.162Z,0.30
2023-01-26T12:16:39.254Z,0.30
2023-01-26T12:19:17.829Z,0.40
2023-01-26T12:21:47.827Z,0.50
2023-01-26T12:24:48.453Z,0.50
2023-01-26T12:27:17.255Z,0.60
2023-01-26T12:29:51.615Z,0.60
2023-01-26T12:32:19.796Z,0.70
2023-01-26T12:34:49.255Z,0.60
2023-01-26T12:37:31.945Z,0.60
2023-01-26T12:40:10.595Z,0.60
2023-01-26T12:42:45.363Z,0.60
2023-01-26T12:45:19.360Z,0.60
2023-01-26T12:47:51.301Z,0.50
2023-01-26T12:50:27.778Z,0.50
2023-01-26T12:53:00.914Z,0.50
2023-01-26T12:55:31.699Z,0.50
2023-01-26T12:58:02.791Z,0.50
2023-01-26T13:00:33.738Z,0.40
2023-01-26T13:03:04.988Z,0.40
2023-01-26T13:05:36.633Z,0.40
2023-01-26T13:08:56.645Z,0.40
2023-01-26T13:11:48.467Z,0.20
2023-01-26T13:14:34.413Z,0.10
2023-01-26T13:17:56.024Z,0.10
2023-01-26T13:20:44.643Z,0.10
2023-01-26T13:23:45.149Z,0.10
2023-01-26T13:26:22.186Z,0.10
2023-01-26T13:28:50.891Z,0.10
2023-01-26T13:31:33.797Z,0.00
2023-01-26T13:34:07.066Z,0.00
2023-01-26T13:36:39.958Z,0.00
2023-01-26T13:39:15.062Z,0.00
2023-01-26T13:41:47.452Z,0.00
2023-01-26T13:44:18.566Z,0.00
2023-01-26T13:46:51.663Z,0.10
2023-01-26T13:49:26.889Z,0.20
2023-01-26T13:51:55.992Z,0.20
2023-01-26T13:54:26.098Z,0.30
2023-01-26T13:57:05.313Z,0.30
2023-01-26T13:59:34.130Z,0.20
2023-01-26T14:02:02.042Z,0.20
2023-01-26T14:04:31.839Z,0.10
2023-01-26T14:07:05.523Z,0.20
2023-01-26T14:09:36.298Z,0.20
2023-01-26T14:12:06.233Z,0.20
2023-01-26T14:14:36.200Z,0.20
2023-01-26T14:17:08.371Z,0.20
2023-01-26T14:19:41.525Z,0.20
2023-01-26T14:22:14.945Z,0.20
2023-01-26T14:24:43.168Z,0.20
2023-01-26T14:27:29.190Z,0.20
2023-01-26T14:29:58.084Z,0.10
2023-01-26T14:32:29.394Z,0.10
2023-01-26T14:34:59.164Z,0.10
2023-01-26T14:37:29.120Z,0.00
2023-01-26T14:40:20.386Z,0.10
2023-01-26T14:42:50.791Z,0.10
2023-01-26T14:45:19.338Z,0.10
2023-01-26T14:47:47.198Z,0.10
2023-01-26T14:50:23.269Z,0.00
2023-01-26T14:52:52.407Z,0.00
2023-01-26T14:55:26.390Z,0.00
2023-01-26T14:57:54.352Z,0.00
2023-01-26T15:00:26.689Z,0.00
2023-01-26T15:02:56.691Z,0.10
2023-01-26T15:05:32.177Z,0.00
2023-01-26T15:08:02.318Z,0.10
2023-01-26T15:10:36.704Z,0.10
2023-01-26T15:13:08.255Z,0.10
2023-01-26T15:15:38.909Z,0.10
2023-01-26T15:18:18.827Z,0.10
2023-01-26T15:21:00.141Z,0.10
2023-01-26T15:23:31.895Z,0.10
2023-01-26T15:26:07.595Z,0.00
2023-01-26T15:28:36.604Z,0.10
2023-01-26T15:31:04.964Z,0.10
2023-01-26T15:33:50.682Z,0.10
2023-01-26T15:36:35.595Z,0.10
2023-01-26T15:39:13.395Z,0.10
2023-01-26T15:41:41.863Z,0.00
2023-01-26T15:44:16.526Z,0.00
2023-01-26T15:46:44.990Z,-0.10
2023-01-26T15:49:13.172Z,-0.10
2023-01-26T15:51:41.207Z,-0.10
2023-01-26T15:54:12.535Z,-0.10
2023-01-26T15:56:40.307Z,-0.10
2023-01-26T15:59:08.205Z,0.00
2023-01-26T16:01:35.983Z,0.00
2023-01-26T16:04:03.747Z,-0.10
2023-01-26T16:06:34.612Z,-0.10
2023-01-26T16:09:02.348Z,-0.10
2023-01-26T16:11:35.166Z,-0.10
2023-01-26T16:14:04.307Z,-0.10
2023-01-26T16:16:32.927Z,-0.10
2023-01-26T16:19:01.020Z,0.00
2023-01-26T16:21:33.206Z,0.00
2023-01-26T16:24:02.087Z,0.00
2023-01-26T16:26:32.069Z,0.00
2023-01-26T16:29:00.034Z,0.00
2023-01-26T16:31:30.824Z,0.00
2023-01-26T16:33:59.884Z,-0.10
2023-01-26T16:36:28.118Z,-0.10
2023-01-26T16:38:56.214Z,-0.10
2023-01-26T16:41:26.645Z,-0.10
2023-01-26T16:43:57.168Z,-0.10
2023-01-26T16:46:25.173Z,-0.10
2023-01-26T16:48:53.627Z,-0.10
2023-01-26T16:51:25.019Z,-0.20
2023-01-26T16:53:54.596Z,-0.20
2023-01-26T16:56:23.402Z,-0.20
2023-01-26T16:58:51.345Z,-0.20
2023-01-26T17:01:23.145Z,-0.10
2023-01-26T17:03:51.290Z,-0.10
2023-01-26T17:06:20.339Z,-0.20
2023-01-26T17:08:48.289Z,-0.20
2023-01-26T17:11:18.553Z,-0.20
2023-01-26T17:13:47.573Z,-0.30
2023-01-26T17:16:17.473Z,-0.30
2023-01-26T17:18:47.267Z,-0.20
2023-01-26T17:21:16.383Z,-0.20
2023-01-26T17:23:45.138Z,-0.10
2023-01-26T17:26:15.361Z,-0.10
2023-01-26T17:28:43.334Z,-0.10
2023-01-26T17:31:12.221Z,-0.10
2023-01-26T17:33:40.684Z,-0.20
2023-01-26T17:36:10.446Z,-0.20
2023-01-26T17:38:38.517Z,-0.20
2023-01-26T17:41:06.981Z,-0.30
2023-01-26T17:43:35.034Z,-0.30
2023-01-26T17:46:04.815Z,-0.30
2023-01-26T17:48:32.714Z,-0.30
2023-01-26T17:51:00.482Z,-0.30
2023-01-26T17:53:29.709Z,-0.30
2023-01-26T17:55:57.459Z,-0.30
2023-01-26T17:58:25.263Z,-0.20
2023-01-26T18:00:53.469Z,-0.20
2023-01-26T18:03:26.184Z,-0.20
2023-01-26T18:05:55.088Z,-0.20
2023-01-26T18:08:23.995Z,-0.20
2023-01-26T18:10:58.832Z,-0.20
2023-01-26T18:13:26.687Z,-0.20
2023-01-26T18:15:55.188Z,-0.20
2023-01-26T18:18:23.459Z,-0.30
2023-01-26T18:20:51.294Z,-0.30
2023-01-26T18:23:20.741Z,-0.30
2023-01-26T18:25:48.903Z,-0.30
2023-01-26T18:28:18.239Z,-0.40
2023-01-26T18:30:46.206Z,-0.30
2023-01-26T18:33:14.063Z,-0.40
2023-01-26T18:35:41.923Z,-0.40
2023-01-26T18:38:09.680Z,-0.40
2023-01-26T18:40:40.431Z,-0.40
2023-01-26T18:43:09.386Z,-0.50
2023-01-26T18:45:42.460Z,-0.50
2023-01-26T18:48:10.346Z,-0.50
2023-01-26T18:50:39.243Z,-0.60
2023-01-26T18:53:07.300Z,-0.60
2023-01-26T18:55:35.093Z,-0.60
2023-01-26T18:58:02.851Z,-0.60
2023-01-26T19:00:30.621Z,-0.50
2023-01-26T19:02:59.736Z,-0.50
2023-01-26T19:05:27.606Z,-0.50
2023-01-26T19:07:55.406Z,-0.40
2023-01-26T19:10:23.169Z,-0.40
2023-01-26T19:12:51.341Z,-0.40
2023-01-26T19:15:19.228Z,-0.40
2023-01-26T19:17:46.978Z,-0.40
2023-01-26T19:20:16.244Z,-0.40
2023-01-26T19:22:44.162Z,-0.50
2023-01-26T19:25:12.252Z,-0.40
2023-01-26T19:27:40.363Z,-0.40
2023-01-26T19:30:09.458Z,-0.40
2023-01-26T19:32:37.515Z,-0.40
2023-01-26T19:35:05.674Z,-0.40
2023-01-26T19:37:34.768Z,-0.40
2023-01-26T19:40:02.584Z,-0.40
2023-01-26T19:42:30.351Z,-0.50
2023-01-26T19:44:58.076Z,-0.50
2023-01-26T19:47:25.844Z,-0.50
2023-01-26T19:49:53.609Z,-0.50
2023-01-26T19:52:21.387Z,-0.50
2023-01-26T19:54:50.478Z,-0.50
2023-01-26T19:57:18.312Z,-0.60
2023-01-26T19:59:46.157Z,-0.60
2023-01-26T20:02:13.924Z,-0.80
2023-01-26T20:04:41.643Z,-0.60
2023-01-26T20:07:09.408Z,-0.60
2023-01-26T20:09:37.674Z,-0.60
2023-01-26T20:12:09.138Z,-0.60
2023-01-26T20:14:37.121Z,-0.60
2023-01-26T20:17:04.927Z,-0.70
2023-01-26T20:19:34.832Z,-0.60
2023-01-26T20:22:03.648Z,-0.60
2023-01-26T20:24:31.509Z,-0.60
2023-01-26T20:26:59.428Z,-0.60
2023-01-26T20:29:28.639Z,-0.60
2023-01-26T20:31:56.473Z,-0.50
2023-01-26T20:34:25.480Z,-0.60
2023-01-26T20:36:57.689Z,-0.50
2023-01-26T20:39:25.498Z,-0.40
2023-01-26T20:41:54.224Z,-0.40
2023-01-26T20:44:22.239Z,-0.40
2023-01-26T20:46:51.271Z,-0.40
2023-01-26T20:49:19.705Z,-0.40
2023-01-26T20:51:47.840Z,-0.40
2023-01-26T20:54:17.203Z,-0.30
2023-01-26T20:56:46.553Z,-0.30
2023-01-26T20:59:14.324Z,-0.30
2023-01-26T21:01:42.094Z,-0.30
2023-01-26T21:04:11.503Z,-0.40
2023-01-26T21:06:41.582Z,-0.50
2023-01-26T21:09:12.661Z,-0.50
2023-01-26T21:11:40.748Z,-0.40
2023-01-26T21:14:12.000Z,-0.40
2023-01-26T21:16:39.821Z,-0.40
2023-01-26T21:19:07.673Z,-0.40
2023-01-26T21:21:36.771Z,-0.30
2023-01-26T21:24:04.919Z,-0.40
2023-01-26T21:26:33.093Z,-0.40
2023-01-26T21:29:01.555Z,-0.40
2023-01-26T21:31:30.851Z,-0.40
2023-01-26T21:33:59.060Z,-0.40
2023-01-26T21:36:28.627Z,-0.40
2023-01-26T21:38:59.104Z,-0.50
2023-01-26T21:41:46.180Z,-0.50
2023-01-26T21:44:16.935Z,-0.50
2023-01-26T21:46:46.371Z,-0.40
2023-01-26T21:49:15.030Z,-0.40
2023-01-26T21:52:00.546Z,-0.50
2023-01-26T21:54:30.235Z,-0.40
2023-01-26T21:56:59.041Z,-0.40
2023-01-26T21:59:26.300Z,-0.40
2023-01-26T22:01:55.320Z,-0.30
2023-01-26T22:04:25.137Z,-0.30
2023-01-26T22:06:53.021Z,-0.20
2023-01-26T22:09:21.285Z,-0.10
2023-01-26T22:11:51.521Z,0.00
2023-01-26T22:14:21.053Z,0.00
2023-01-26T22:16:48.921Z,0.00
2023-01-26T22:19:16.807Z,0.00
2023-01-26T22:21:44.775Z,0.00
2023-01-26T22:24:15.299Z,0.00
2023-01-26T22:26:43.223Z,0.00
2023-01-26T22:29:13.325Z,-0.10
2023-01-26T22:31:41.706Z,-0.20
2023-01-26T22:34:11.557Z,-0.20
2023-01-26T22:36:40.059Z,-0.20
2023-01-26T22:39:07.907Z,-0.20
2023-01-26T22:41:35.949Z,-0.20
2023-01-26T22:44:03.719Z,-0.20
2023-01-26T22:46:33.158Z,-0.20
2023-01-26T22:49:01.102Z,-0.20
2023-01-26T22:51:30.311Z,-0.20
2023-01-26T22:53:59.403Z,-0.30
2023-01-26T22:56:28.149Z,-0.30
2023-01-26T22:58:59.852Z,-0.30
2023-01-26T23:01:29.134Z,-0.30
2023-01-26T23:03:59.154Z,-0.30
2023-01-26T23:06:27.483Z,-0.30
2023-01-26T23:08:55.612Z,-0.30
2023-01-26T23:11:25.329Z,-0.30
2023-01-26T23:13:54.598Z,-0.20
2023-01-26T23:16:23.952Z,-0.30
2023-01-26T23:18:52.009Z,-0.20
2023-01-26T23:21:21.242Z,-0.30
2023-01-26T23:23:49.139Z,-0.30
2023-01-26T23:26:17.514Z,-0.40
2023-01-26T23:28:45.868Z,-0.30
2023-01-26T23:31:15.578Z,-0.30
2023-01-26T23:33:43.453Z,-0.30
2023-01-26T23:36:13.045Z,-0.30
2023-01-26T23:38:42.541Z,-0.20
2023-01-26T23:41:10.335Z,-0.20
2023-01-26T23:43:38.137Z,-0.10
2023-01-26T23:46:06.699Z,-0.10
2023-01-26T23:48:34.458Z,-0.10
2023-01-26T23:51:03.956Z,-0.10
2023-01-26T23:53:32.063Z,-0.10
2023-01-26T23:56:04.959Z,-0.10
2023-01-26T23:58:32.677Z,-0.10
